Time;durP1;ratioP1;P1;durP2;ratioP2;P2;SDS_P1;SDS_P2;PMS_P1;PMS_P2;Temp;Humidity;BMP_temperature;BMP_pressure;BME280_temperature;BME280_humidity;BME280_pressure;Samples;Min_cycle;Max_cycle;Signal;HPM_P1;HPM_P2
2021/04/13 00:01:20;;;;;;;6.82;4.78;;;8.40;65.70;;;;;;5111307;28;20042;-64
2021/04/13 00:03:55;;;;;;;5.82;4.72;;;8.40;65.60;;;;;;5111307;28;20035;-65
2021/04/13 00:06:39;;;;;;;4.75;3.88;;;8.40;65.50;;;;;;5118300;28;20027;-64
2021/04/13 00:09:11;;;;;;;5.72;4.70;;;8.40;65.30;;;;;;5131627;27;20487;-64
2021/04/13 00:11:37;;;;;;;6.53;5.07;;;8.30;65.20;;;;;;5130566;28;20030;-64
2021/04/13 00:14:06;;;;;;;4.47;3.85;;;8.30;65.10;;;;;;5131649;27;20015;-64
2021/04/13 00:16:34;;;;;;;5.57;4.65;;;8.30;64.80;;;;;;5120311;27;20026;-64
2021/04/13 00:19:00;;;;;;;4.95;4.40;;;8.30;65.10;;;;;;5131496;27;20392;-64
2021/04/13 00:21:30;;;;;;;5.30;4.45;;;8.30;65.20;;;;;;5131572;27;20027;-64
2021/04/13 00:24:00;;;;;;;6.13;5.00;;;8.30;65.10;;;;;;5130467;28;20023;-64
2021/04/13 00:26:28;;;;;;;4.97;4.25;;;8.20;65.10;;;;;;5130516;28;20388;-64
2021/04/13 00:28:56;;;;;;;5.57;4.40;;;8.20;65.10;;;;;;5126106;28;20483;-65
2021/04/13 00:31:42;;;;;;;5.47;4.80;;;8.20;65.10;;;;;;5111060;28;20128;-64
2021/04/13 00:34:23;;;;;;;5.40;4.80;;;8.20;65.20;;;;;;5111090;28;20020;-64
2021/04/13 00:36:51;;;;;;;5.40;4.72;;;8.10;65.20;;;;;;5112951;28;20075;-64
2021/04/13 00:39:27;;;;;;;5.68;4.32;;;8.10;65.40;;;;;;5115056;27;20129;-64
2021/04/13 00:41:57;;;;;;;6.55;4.93;;;8.10;65.40;;;;;;5114797;28;20754;-64
2021/04/13 00:44:24;;;;;;;6.07;5.03;;;8.00;65.40;;;;;;5114915;28;20054;-64
2021/04/13 00:46:58;;;;;;;6.35;5.35;;;8.00;65.30;;;;;;5114724;27;20027;-64
2021/04/13 00:49:28;;;;;;;5.13;4.47;;;8.00;65.30;;;;;;5114389;28;20397;-65
2021/04/13 00:52:01;;;;;;;4.68;3.90;;;8.00;65.40;;;;;;5117164;27;20461;-65
2021/04/13 00:54:32;;;;;;;5.15;4.55;;;8.00;65.50;;;;;;5135190;27;20019;-64
2021/04/13 00:57:06;;;;;;;5.57;4.57;;;7.90;65.40;;;;;;5135010;27;20038;-64
2021/04/13 00:59:33;;;;;;;4.35;3.85;;;7.90;65.30;;;;;;5135024;27;20106;-64
2021/04/13 01:02:05;;;;;;;4.70;4.18;;;7.90;65.40;;;;;;5134958;27;20027;-65
2021/04/13 01:04:40;;;;;;;5.20;4.53;;;7.90;65.50;;;;;;5131956;27;20035;-64
2021/04/13 01:07:12;;;;;;;5.20;4.70;;;7.90;65.30;;;;;;5134621;27;20503;-64
2021/04/13 01:09:51;;;;;;;5.22;4.25;;;7.80;65.20;;;;;;5134730;27;20031;-64
2021/04/13 01:12:31;;;;;;;4.95;4.38;;;7.80;65.30;;;;;;5133300;27;20031;-65
2021/04/13 01:15:00;;;;;;;4.93;4.38;;;7.90;65.30;;;;;;5123594;27;20027;-64
2021/04/13 01:17:27;;;;;;;5.13;4.63;;;7.80;65.30;;;;;;5134724;27;20015;-64
2021/04/13 01:20:12;;;;;;;5.43;4.55;;;7.80;65.30;;;;;;5134535;27;20502;-64
2021/04/13 01:22:51;;;;;;;;;;;7.80;65.10;;;;;;5134615;27;20035;-64
2021/04/13 01:25:24;;;;;;;6.63;4.50;;;7.80;65.00;;;;;;5127902;27;19936;-64
2021/04/13 01:28:09;;;;;;;4.97;4.23;;;7.80;65.10;;;;;;5131066;27;20495;-63
2021/04/13 01:30:48;;;;;;;6.05;4.65;;;7.80;65.30;;;;;;5120442;27;20296;-64
2021/04/13 01:33:21;;;;;;;5.30;4.57;;;7.80;65.40;;;;;;5134302;27;20476;-64
2021/04/13 01:35:52;;;;;;;5.60;5.00;;;7.80;65.40;;;;;;5129123;27;20023;-64
2021/04/13 01:38:40;;;;;;;6.30;4.93;;;7.80;65.30;;;;;;5132578;27;20027;-65
2021/04/13 01:41:27;;;;;;;6.93;4.68;;;7.80;65.30;;;;;;5132908;27;20351;-64
2021/04/13 01:43:56;;;;;;;5.68;4.88;;;7.80;65.40;;;;;;5134126;27;20487;-64
2021/04/13 01:46:21;;;;;;;5.30;4.70;;;7.80;65.30;;;;;;5121490;27;20035;-64
2021/04/13 01:48:47;;;;;;;6.82;5.07;;;7.80;65.30;;;;;;5133516;27;20031;-65
2021/04/13 01:51:13;;;;;;;5.10;4.60;;;7.70;65.30;;;;;;5133706;27;20058;-64
2021/04/13 01:53:44;;;;;;;6.05;4.93;;;7.70;65.30;;;;;;5133561;27;20034;-64
2021/04/13 01:56:36;;;;;;;5.18;4.68;;;7.70;65.30;;;;;;5122606;27;20503;-64
2021/04/13 01:59:22;;;;;;;6.05;5.28;;;7.70;65.20;;;;;;5134157;27;20037;-64
2021/04/13 02:01:58;;;;;;;6.50;5.15;;;7.70;65.00;;;;;;5134638;27;20046;-64
2021/04/13 02:04:27;;;;;;;6.53;5.43;;;7.70;65.10;;;;;;5134595;27;20022;-64
2021/04/13 02:07:00;;;;;;;6.28;5.43;;;7.60;65.10;;;;;;5127582;27;20050;-64
2021/04/13 02:09:42;;;;;;;7.57;5.40;;;7.60;65.20;;;;;;5133178;27;20111;-64
2021/04/13 02:12:12;;;;;;;6.70;5.57;;;7.60;65.20;;;;;;5132699;27;20017;-64
2021/04/13 02:14:47;;;;;;;6.50;5.38;;;7.60;65.20;;;;;;5123899;27;20079;-64
2021/04/13 02:17:27;;;;;;;6.95;6.25;;;7.60;65.30;;;;;;5122046;27;20025;-64
2021/04/13 02:19:54;;;;;;;7.07;5.85;;;7.60;65.30;;;;;;5134242;27;20100;-65
2021/04/13 02:22:22;;;;;;;6.35;5.60;;;7.60;65.50;;;;;;5133944;27;20027;-64
2021/04/13 02:24:52;;;;;;;7.80;5.90;;;7.60;65.50;;;;;;5132925;27;20058;-64
2021/04/13 02:27:22;;;;;;;7.70;6.28;;;7.60;65.50;;;;;;5131623;27;20035;-64
2021/04/13 02:29:51;;;;;;;9.57;5.95;;;7.60;65.50;;;;;;5134050;27;20106;-64
2021/04/13 02:32:26;;;;;;;8.40;5.82;;;7.60;65.60;;;;;;5132048;27;20023;-65
2021/04/13 02:34:58;;;;;;;7.28;6.07;;;7.60;65.60;;;;;;5133853;27;20041;-64
2021/04/13 02:37:33;;;;;;;7.38;6.13;;;7.60;65.60;;;;;;5133811;27;20122;-64
2021/04/13 02:40:27;;;;;;;8.77;6.25;;;7.50;65.60;;;;;;5133810;27;20031;-64
2021/04/13 02:42:56;;;;;;;7.70;6.35;;;7.60;65.60;;;;;;5133371;27;20496;-64
2021/04/13 02:45:42;;;;;;;6.18;5.45;;;7.60;65.70;;;;;;5129416;27;20033;-64
2021/04/13 02:48:41;;;;;;;5.85;5.20;;;7.60;65.70;;;;;;5128504;27;20027;-64
2021/04/13 02:51:13;;;;;;;7.53;6.05;;;7.50;65.50;;;;;;5132097;27;20039;-64
2021/04/13 02:53:56;;;;;;;8.98;5.55;;;7.60;65.60;;;;;;5133347;27;20018;-64
2021/04/13 02:56:28;;;;;;;7.00;5.93;;;7.50;65.50;;;;;;5118402;27;20031;-64
2021/04/13 02:59:00;;;;;;;7.13;5.55;;;7.50;65.70;;;;;;5132727;27;20049;-65
2021/04/13 03:01:26;;;;;;;6.57;5.85;;;7.50;65.80;;;;;;5132119;27;20015;-64
2021/04/13 03:03:53;;;;;;;7.85;6.10;;;7.50;65.80;;;;;;5131184;27;20015;-64
2021/04/13 03:06:21;;;;;;;7.07;5.78;;;7.50;65.90;;;;;;5120604;27;20166;-64
2021/04/13 03:08:47;;;;;;;10.20;6.03;;;7.50;66.00;;;;;;5133027;27;20019;-64
2021/04/13 03:11:22;;;;;;;7.57;5.82;;;7.50;66.00;;;;;;5133157;27;20524;-64
2021/04/13 03:13:50;;;;;;;8.50;6.38;;;7.50;66.00;;;;;;5128165;27;20526;-64
2021/04/13 03:16:19;;;;;;;6.93;5.85;;;7.50;66.00;;;;;;5113030;27;20028;-64
2021/04/13 03:18:49;;;;;;;7.38;5.65;;;7.50;66.10;;;;;;5133210;27;20034;-64
2021/04/13 03:21:26;;;;;;;8.00;6.50;;;7.50;66.10;;;;;;5133098;27;20023;-64
2021/04/13 03:23:56;;;;;;;7.00;6.30;;;7.50;66.10;;;;;;5132885;27;20118;-64
2021/04/13 03:26:32;;;;;;;8.02;6.63;;;7.60;66.10;;;;;;5118536;27;20025;-64
2021/04/13 03:29:12;;;;;;;6.45;5.55;;;7.60;66.00;;;;;;5122383;27;20023;-64
2021/04/13 03:31:40;;;;;;;10.23;6.47;;;7.50;65.90;;;;;;5132416;27;20026;-64
2021/04/13 03:34:06;;;;;;;8.50;6.68;;;7.60;66.10;;;;;;5132758;27;20380;-64
2021/04/13 03:36:33;;;;;;;6.82;5.93;;;7.60;66.00;;;;;;5116646;27;20020;-65
2021/04/13 03:39:11;;;;;;;7.63;6.30;;;7.60;66.00;;;;;;5132301;27;20023;-64
2021/04/13 03:41:47;;;;;;;7.35;6.45;;;7.60;66.00;;;;;;5132336;27;20372;-64
2021/04/13 03:44:16;;;;;;;8.00;6.22;;;7.60;65.90;;;;;;5132728;27;20023;-64
2021/04/13 03:46:42;;;;;;;9.25;6.75;;;7.60;66.00;;;;;;5132083;27;20027;-64
2021/04/13 03:49:15;;;;;;;7.72;5.90;;;7.60;65.90;;;;;;5132321;27;20050;-64
2021/04/13 03:51:46;;;;;;;7.93;6.60;;;7.60;65.90;;;;;;5132556;27;20019;-64
2021/04/13 03:54:25;;;;;;;7.00;5.80;;;7.60;65.90;;;;;;5131509;28;20440;-64
2021/04/13 03:56:52;;;;;;;9.52;7.07;;;7.60;65.80;;;;;;5122655;27;20019;-64
2021/04/13 03:59:24;;;;;;;8.20;6.68;;;7.60;65.80;;;;;;5132692;27;20376;-64
2021/04/13 04:01:51;;;;;;;7.60;5.93;;;7.70;65.80;;;;;;5132004;27;20019;-64
2021/04/13 04:05:01;;;;;;;7.07;5.90;;;7.70;65.80;;;;;;5132291;27;20073;-64
2021/04/13 04:07:38;;;;;;;11.07;7.50;;;7.70;65.80;;;;;;5094448;28;20094;-64
2021/04/13 04:10:45;;;;;;;9.75;6.68;;;7.70;65.70;;;;;;5109418;28;20054;-64
2021/04/13 04:13:35;;;;;;;7.65;6.53;;;7.70;65.60;;;;;;5109687;28;20023;-64
2021/04/13 04:16:07;;;;;;;9.88;7.22;;;7.70;65.70;;;;;;5083178;28;20020;-64
2021/04/13 04:18:54;;;;;;;10.65;7.93;;;7.70;65.50;;;;;;5110531;28;20071;-64
2021/04/13 04:21:31;;;;;;;8.65;7.25;;;7.70;65.30;;;;;;5094666;28;20020;-64
2021/04/13 04:24:18;;;;;;;13.85;8.60;;;7.70;65.10;;;;;;5080229;28;20040;-64
2021/04/13 04:26:55;;;;;;;9.55;7.55;;;7.70;65.10;;;;;;5071022;28;20047;-64
2021/04/13 04:29:34;;;;;;;14.10;8.63;;;7.70;65.10;;;;;;5092950;28;20070;-64
2021/04/13 04:32:29;;;;;;;11.57;7.90;;;7.70;65.10;;;;;;5099607;28;20020;-64
2021/04/13 04:34:58;;;;;;;10.05;7.80;;;7.60;65.00;;;;;;5110617;28;20043;-64
2021/04/13 04:37:28;;;;;;;9.63;7.53;;;7.60;65.10;;;;;;5099509;28;20138;-64
2021/04/13 04:40:27;;;;;;;9.85;8.25;;;7.70;65.20;;;;;;5112179;28;20035;-64
2021/04/13 04:43:01;;;;;;;11.00;8.20;;;7.60;65.00;;;;;;5116480;27;20035;-64
2021/04/13 04:45:47;;;;;;;10.13;7.97;;;7.60;64.80;;;;;;5136060;27;20106;-64
2021/04/13 04:48:27;;;;;;;11.75;8.30;;;7.60;65.60;;;;;;5125783;27;20034;-64
2021/04/13 04:51:13;;;;;;;11.05;8.20;;;7.60;64.90;;;;;;5115148;28;20040;-64
2021/04/13 04:53:41;;;;;;;10.07;7.78;;;7.60;64.80;;;;;;5134307;27;20019;-64
2021/04/13 04:56:10;;;;;;;8.80;7.43;;;7.60;65.00;;;;;;5122041;27;20024;-65
2021/04/13 04:58:36;;;;;;;9.65;7.82;;;7.60;64.90;;;;;;5124929;27;20067;-64
2021/04/13 05:01:03;;;;;;;11.25;8.05;;;7.60;64.90;;;;;;5129021;27;20047;-64
2021/04/13 05:03:29;;;;;;;10.30;7.22;;;7.60;65.00;;;;;;5130200;27;20031;-64
2021/04/13 05:05:57;;;;;;;17.95;8.02;;;7.60;65.10;;;;;;5124729;27;20073;-64
2021/04/13 05:08:23;;;;;;;10.68;7.35;;;7.60;65.00;;;;;;5123485;27;20030;-64
2021/04/13 05:10:50;;;;;;;10.80;7.53;;;7.70;65.00;;;;;;5120986;27;20514;-64
2021/04/13 05:13:17;;;;;;;9.50;7.40;;;7.70;65.00;;;;;;5122280;27;20026;-65
2021/04/13 05:15:43;;;;;;;10.27;6.97;;;7.70;65.00;;;;;;5123916;27;20024;-64
2021/04/13 05:18:09;;;;;;;12.98;7.70;;;7.70;65.00;;;;;;5129141;27;20019;-64
2021/04/13 05:20:35;;;;;;;12.35;6.78;;;7.70;65.00;;;;;;5135189;27;20025;-64
2021/04/13 05:23:01;;;;;;;10.93;7.22;;;7.80;65.20;;;;;;5134823;27;20034;-64
2021/04/13 05:25:28;;;;;;;13.52;7.47;;;7.80;65.20;;;;;;5128508;27;20027;-64
2021/04/13 05:27:54;;;;;;;8.10;6.35;;;7.90;65.10;;;;;;5127134;27;20152;-64
2021/04/13 05:30:21;;;;;;;10.38;5.30;;;7.90;64.70;;;;;;5134887;27;20488;-64
2021/04/13 05:32:48;;;;;;;8.63;5.55;;;7.90;64.60;;;;;;5135172;27;20019;-64
2021/04/13 05:35:15;;;;;;;8.43;4.97;;;8.00;64.90;;;;;;5132176;27;20023;-64
2021/04/13 05:37:41;;;;;;;7.28;4.30;;;8.10;65.40;;;;;;5134863;27;20016;-64
2021/04/13 05:40:12;;;;;;;4.90;3.38;;;8.10;64.70;;;;;;5135103;27;20160;-64
2021/04/13 05:42:38;;;;;;;3.97;3.30;;;8.20;64.00;;;;;;5133677;27;20102;-64
2021/04/13 05:45:09;;;;;;;4.47;3.38;;;8.30;63.70;;;;;;5132824;27;20424;-64
2021/04/13 05:47:36;;;;;;;6.07;4.00;;;8.30;62.90;;;;;;5123040;27;20027;-64
2021/04/13 05:50:04;;;;;;;7.30;4.03;;;8.40;62.70;;;;;;5132980;27;20460;-64
2021/04/13 05:52:30;;;;;;;5.28;3.60;;;8.40;62.30;;;;;;5129705;27;20034;-65
2021/04/13 05:54:55;;;;;;;5.80;3.65;;;8.40;61.80;;;;;;5128223;27;20016;-65
2021/04/13 05:57:30;;;;;;;7.38;3.60;;;8.50;62.00;;;;;;5128579;27;20026;-65
2021/04/13 05:59:56;;;;;;;;;;;8.50;61.90;;;;;;5135013;27;20023;-64
2021/04/13 06:02:22;;;;;;;6.70;4.15;;;8.60;62.10;;;;;;5131315;27;20387;-64
2021/04/13 06:04:53;;;;;;;7.30;3.53;;;8.60;61.90;;;;;;5130458;27;20023;-64
2021/04/13 06:07:19;;;;;;;4.85;3.88;;;8.60;61.60;;;;;;5120996;27;20085;-64
2021/04/13 06:09:45;;;;;;;5.93;3.80;;;8.70;62.00;;;;;;5134169;27;20058;-65
2021/04/13 06:12:14;;;;;;;6.75;3.13;;;8.70;61.70;;;;;;5124011;27;20011;-64
2021/04/13 06:14:42;;;;;;;10.10;3.35;;;8.80;60.70;;;;;;5132014;27;20525;-64
2021/04/13 06:17:11;;;;;;;3.75;2.47;;;8.80;60.60;;;;;;5122371;27;20064;-65
2021/04/13 06:19:38;;;;;;;6.05;3.38;;;8.90;61.60;;;;;;5134063;27;20088;-65
2021/04/13 06:22:04;;;;;;;4.07;2.55;;;9.00;61.90;;;;;;5133168;27;20540;-64
2021/04/13 06:24:30;;;;;;;7.47;2.55;;;9.10;61.90;;;;;;5133301;27;20136;-64
2021/04/13 06:26:56;;;;;;;5.15;2.45;;;9.10;60.50;;;;;;5122806;27;20024;-64
2021/04/13 06:29:22;;;;;;;3.53;2.47;;;9.20;59.60;;;;;;5133705;27;20026;-65
2021/04/13 06:31:48;;;;;;;5.03;2.00;;;9.20;59.70;;;;;;5133186;27;20011;-64
2021/04/13 06:34:14;;;;;;;7.32;2.20;;;9.30;60.40;;;;;;5132871;27;20138;-64
2021/04/13 06:36:40;;;;;;;4.38;2.13;;;9.30;60.10;;;;;;5127642;27;20023;-65
2021/04/13 06:39:06;;;;;;;4.15;2.22;;;9.40;60.90;;;;;;5133458;27;20050;-65
2021/04/13 06:42:08;;;;;;;4.00;2.10;;;9.50;60.30;;;;;;5132357;27;20437;-64
2021/04/13 06:45:08;;;;;;;6.97;2.60;;;9.60;59.20;;;;;;5113427;27;20020;-65
2021/04/13 06:47:39;;;;;;;3.65;2.67;;;9.60;59.20;;;;;;5131180;27;20024;-64
2021/04/13 06:50:33;;;;;;;4.07;2.38;;;9.70;59.60;;;;;;5131406;27;20039;-64
2021/04/13 06:53:25;;;;;;;5.00;2.72;;;9.70;59.60;;;;;;5130363;27;20054;-64
2021/04/13 06:56:00;;;;;;;4.68;2.35;;;9.80;60.20;;;;;;5125345;27;20019;-64
2021/04/13 06:58:36;;;;;;;4.63;2.55;;;9.80;60.90;;;;;;5133400;27;20039;-64
2021/04/13 07:01:23;;;;;;;3.40;2.20;;;9.90;60.10;;;;;;5132724;27;20480;-65
2021/04/13 07:03:54;;;;;;;2.85;2.17;;;9.90;60.00;;;;;;5132956;27;20110;-64
2021/04/13 07:06:23;;;;;;;3.35;1.83;;;10.00;59.60;;;;;;5122891;27;20117;-64
2021/04/13 07:08:57;;;;;;;3.50;2.28;;;10.00;59.20;;;;;;5129841;27;20028;-65
2021/04/13 07:11:39;;;;;;;8.10;2.50;;;10.10;59.60;;;;;;5119227;27;20484;-65
2021/04/13 07:14:08;;;;;;;3.03;1.88;;;10.10;59.40;;;;;;5122348;27;20084;-64
2021/04/13 07:16:37;;;;;;;3.63;2.00;;;10.10;59.40;;;;;;5114250;28;20396;-65
2021/04/13 07:19:09;;;;;;;2.63;1.85;;;10.20;59.40;;;;;;5129390;27;20034;-64
2021/04/13 07:21:44;;;;;;;4.53;2.00;;;10.20;58.60;;;;;;5123692;27;20026;-65
2021/04/13 07:24:38;;;;;;;5.82;2.28;;;10.20;58.60;;;;;;5132981;27;20134;-65
2021/04/13 07:27:15;;;;;;;6.05;2.42;;;10.20;58.40;;;;;;5132806;27;20094;-65
2021/04/13 07:30:24;;;;;;;2.97;2.13;;;10.20;58.70;;;;;;5130803;27;20030;-64
2021/04/13 07:32:58;;;;;;;6.40;2.30;;;10.30;58.20;;;;;;5128581;27;20019;-66
2021/04/13 07:35:30;;;;;;;4.00;2.28;;;10.30;58.90;;;;;;5128289;27;20369;-65
2021/04/13 07:37:56;;;;;;;3.92;1.98;;;10.30;58.40;;;;;;5131995;27;20019;-65
2021/04/13 07:40:38;;;;;;;5.93;1.92;;;10.40;58.40;;;;;;5114268;27;20330;-65
2021/04/13 07:43:09;;;;;;;3.83;1.98;;;10.40;57.60;;;;;;5139958;27;20027;-65
2021/04/13 07:45:57;;;;;;;7.43;2.00;;;10.40;57.60;;;;;;5132504;27;20547;-64
2021/04/13 07:48:53;;;;;;;3.55;2.25;;;10.50;58.40;;;;;;5130809;27;20088;-65
2021/04/13 07:51:37;;;;;;;3.28;1.92;;;10.60;57.80;;;;;;5129218;27;20050;-65
2021/04/13 07:54:18;;;;;;;2.47;1.75;;;10.70;58.10;;;;;;5126658;28;20102;-65
2021/04/13 07:56:48;;;;;;;8.13;1.83;;;10.70;58.00;;;;;;5132478;27;20098;-65
2021/04/13 07:59:28;;;;;;;3.17;1.75;;;10.80;57.10;;;;;;5131947;27;20027;-65
2021/04/13 08:01:55;;;;;;;7.20;2.08;;;10.80;56.20;;;;;;5132328;27;20026;-65
2021/04/13 08:04:28;;;;;;;3.75;1.77;;;10.90;56.20;;;;;;5131703;28;20049;-65
2021/04/13 08:07:19;;;;;;;3.37;1.83;;;10.90;56.70;;;;;;5115336;27;20024;-65
2021/04/13 08:10:17;;;;;;;3.03;1.83;;;11.00;56.20;;;;;;5120131;28;20102;-65
2021/04/13 08:12:57;;;;;;;9.70;1.90;;;11.00;55.80;;;;;;5111978;28;20112;-65
2021/04/13 08:15:41;;;;;;;4.47;1.80;;;11.10;54.80;;;;;;5117509;28;20114;-65
2021/04/13 08:18:21;;;;;;;4.50;1.92;;;11.10;55.20;;;;;;5120604;28;20024;-65
2021/04/13 08:20:48;;;;;;;4.45;1.88;;;11.00;55.40;;;;;;5126081;28;20030;-65
2021/04/13 08:23:36;;;;;;;3.80;2.15;;;11.00;55.60;;;;;;5130641;27;20031;-64
2021/04/13 08:26:38;;;;;;;3.40;2.03;;;11.00;55.70;;;;;;5126011;27;20028;-65
2021/04/13 08:29:36;;;;;;;7.10;1.83;;;11.00;56.20;;;;;;5087969;28;20067;-65
2021/04/13 08:35:12;;;;;;;3.63;2.00;;;11.20;56.40;;;;;;5088663;28;20468;-65
2021/04/13 08:38:13;;;;;;;4.88;1.80;;;11.30;56.20;;;;;;5076354;28;20016;-65
2021/04/13 08:41:00;;;;;;;3.15;1.60;;;11.30;56.50;;;;;;5088417;28;20131;-68
2021/04/13 08:43:48;;;;;;;3.28;1.60;;;11.60;57.10;;;;;;5088420;28;20110;-69
2021/04/13 08:46:53;;;;;;;5.72;2.55;;;11.70;56.10;;;;;;5053919;28;20052;-67
2021/04/13 08:49:28;;;;;;;4.75;1.50;;;11.80;55.00;;;;;;5098101;28;20046;-68
2021/04/13 08:52:36;;;;;;;1.90;1.00;;;11.90;55.50;;;;;;5088943;28;20039;-67
2021/04/13 08:55:14;;;;;;;1.83;1.30;;;11.90;55.30;;;;;;5070587;28;20078;-67
2021/04/13 08:57:59;;;;;;;3.67;1.10;;;11.90;52.50;;;;;;5088383;28;20032;-67
2021/04/13 09:00:45;;;;;;;5.07;1.23;;;11.90;52.90;;;;;;5096600;28;20028;-67
2021/04/13 09:03:14;;;;;;;3.50;1.48;;;12.00;52.50;;;;;;5092545;28;20081;-66
2021/04/13 09:05:41;;;;;;;2.50;1.30;;;11.90;52.60;;;;;;5134770;27;20046;-67
2021/04/13 09:08:25;;;;;;;6.32;1.20;;;11.90;52.20;;;;;;5134623;27;20057;-67
2021/04/13 09:11:12;;;;;;;1.48;1.17;;;11.80;51.40;;;;;;5132274;27;20030;-67
2021/04/13 09:13:39;;;;;;;3.55;1.40;;;11.70;50.40;;;;;;5130960;27;20063;-66
2021/04/13 09:16:10;;;;;;;3.15;1.60;;;11.70;51.40;;;;;;5126088;27;20024;-69
2021/04/13 09:18:45;;;;;;;1.80;1.13;;;11.60;50.80;;;;;;5129894;27;20410;-68
2021/04/13 09:21:26;;;;;;;3.47;1.60;;;11.60;51.20;;;;;;5134761;27;20087;-70
2021/04/13 09:24:10;;;;;;;3.50;1.55;;;11.60;50.50;;;;;;5135476;27;20488;-76
2021/04/13 09:27:05;;;;;;;4.60;1.67;;;11.70;50.00;;;;;;5121075;27;20019;-77
2021/04/13 09:29:51;;;;;;;3.70;2.00;;;11.70;51.30;;;;;;5112958;27;20129;-73
2021/04/13 09:32:26;;;;;;;8.73;2.38;;;11.80;51.20;;;;;;5122326;27;20023;-73
2021/04/13 09:35:18;;;;;;;7.03;2.50;;;11.80;51.10;;;;;;5115432;27;20022;-73
2021/04/13 09:38:03;;;;;;;5.95;2.75;;;11.80;50.80;;;;;;5132799;27;20011;-73
2021/04/13 09:40:41;;;;;;;;;;;11.70;51.00;;;;;;5136407;27;20098;-73
2021/04/13 09:43:29;;;;;;;4.85;2.05;;;11.70;52.30;;;;;;5135551;27;19998;-73
2021/04/13 09:45:56;;;;;;;4.05;2.22;;;11.70;51.70;;;;;;5135373;27;20019;-73
2021/04/13 09:48:33;;;;;;;3.47;1.98;;;11.60;51.40;;;;;;5135760;27;20027;-72
2021/04/13 09:51:15;;;;;;;2.70;2.17;;;11.60;52.30;;;;;;5135192;27;20054;-72
2021/04/13 09:54:15;;;;;;;2.28;2.08;;;11.60;52.20;;;;;;5135386;27;20023;-71
2021/04/13 09:56:47;;;;;;;2.90;1.90;;;11.70;53.70;;;;;;5135469;27;20050;-71
2021/04/13 09:59:37;;;;;;;5.90;2.25;;;12.00;54.80;;;;;;5133795;27;20019;-73
2021/04/13 10:02:30;;;;;;;7.53;2.35;;;12.30;54.70;;;;;;5135415;27;20038;-71
2021/04/13 10:04:59;;;;;;;5.45;2.50;;;12.60;56.10;;;;;;5115062;28;20046;-71
2021/04/13 10:07:28;;;;;;;2.50;2.00;;;12.90;53.30;;;;;;5121184;27;20023;-71
2021/04/13 10:09:57;;;;;;;4.20;1.88;;;13.10;53.20;;;;;;5135149;27;20023;-71
2021/04/13 10:12:47;;;;;;;7.85;2.60;;;13.30;52.70;;;;;;5135011;27;20019;-71
2021/04/13 10:15:52;;;;;;;5.00;2.47;;;13.50;51.70;;;;;;5133966;27;20365;-71
2021/04/13 10:18:36;;;;;;;8.18;2.20;;;13.50;49.40;;;;;;5133610;27;20030;-74
2021/04/13 10:21:27;;;;;;;5.93;2.40;;;13.50;50.40;;;;;;5135304;27;20480;-71
2021/04/13 10:24:25;;;;;;;2.92;2.08;;;13.50;49.70;;;;;;5135017;27;20034;-71
2021/04/13 10:27:06;;;;;;;4.82;2.30;;;13.30;48.30;;;;;;5112707;27;20172;-72
2021/04/13 10:29:53;;;;;;;3.33;2.15;;;13.10;48.60;;;;;;5133424;27;20023;-72
2021/04/13 10:32:38;;;;;;;2.97;2.13;;;12.90;48.70;;;;;;5133300;27;20421;-72
2021/04/13 10:35:13;;;;;;;2.85;1.92;;;12.50;49.40;;;;;;5134981;27;20450;-71
2021/04/13 10:38:11;;;;;;;8.18;2.42;;;12.40;50.50;;;;;;5134359;27;20054;-72
2021/04/13 10:40:58;;;;;;;5.97;2.47;;;12.20;51.70;;;;;;5134764;27;20023;-72
2021/04/13 10:43:26;;;;;;;7.25;2.53;;;12.10;51.90;;;;;;5134553;27;20080;-72
2021/04/13 10:46:29;;;;;;;5.55;2.55;;;12.10;52.90;;;;;;5134683;27;20023;-73
2021/04/13 10:49:20;;;;;;;5.47;2.35;;;12.10;52.90;;;;;;5113941;28;20051;-72
2021/04/13 10:51:49;;;;;;;3.20;2.28;;;12.20;53.70;;;;;;5119821;27;20384;-72
2021/04/13 10:54:24;;;;;;;4.50;2.00;;;12.30;55.30;;;;;;5134408;27;20030;-72
2021/04/13 10:57:10;;;;;;;5.30;2.28;;;12.50;55.00;;;;;;5133273;27;20025;-72
2021/04/13 10:59:57;;;;;;;11.15;2.33;;;12.70;54.30;;;;;;5118047;27;20027;-72
2021/04/13 11:02:50;;;;;;;2.83;2.00;;;12.70;52.70;;;;;;5127077;27;20027;-72
2021/04/13 11:05:53;;;;;;;3.08;2.00;;;12.80;53.30;;;;;;5134253;27;20029;-72
2021/04/13 11:08:52;;;;;;;7.40;2.00;;;12.90;52.90;;;;;;5133965;27;20031;-72
2021/04/13 11:11:33;;;;;;;2.95;1.65;;;13.00;52.20;;;;;;5133885;27;20019;-72
2021/04/13 11:14:07;;;;;;;3.22;1.58;;;13.00;51.60;;;;;;5134160;27;20016;-72
2021/04/13 11:16:56;;;;;;;;;;;12.90;51.00;;;;;;5134251;27;20046;-72
2021/04/13 11:19:38;;;;;;;4.47;1.38;;;12.90;51.90;;;;;;5130975;27;19903;-72
2021/04/13 11:22:07;;;;;;;6.03;2.10;;;12.80;51.50;;;;;;5133735;27;20011;-71
2021/04/13 11:25:00;;;;;;;1.65;1.40;;;12.80;51.10;;;;;;5134073;27;20024;-72
2021/04/13 11:27:38;;;;;;;1.80;1.70;;;12.70;51.10;;;;;;5133959;27;20027;-72
2021/04/13 11:30:13;;;;;;;1.80;1.55;;;12.60;51.40;;;;;;5133429;27;20023;-72
2021/04/13 11:32:53;;;;;;;2.38;1.75;;;12.50;52.50;;;;;;5133333;27;20015;-72
2021/04/13 11:35:21;;;;;;;1.52;1.30;;;12.60;53.30;;;;;;5132072;27;20375;-73
2021/04/13 11:38:11;;;;;;;3.20;1.75;;;12.60;52.80;;;;;;5133221;27;20110;-75
2021/04/13 11:40:40;;;;;;;1.92;1.45;;;12.70;52.70;;;;;;5134006;27;20477;-73
2021/04/13 11:43:14;;;;;;;1.70;1.17;;;12.70;53.00;;;;;;5132525;27;20023;-73
2021/04/13 11:45:50;;;;;;;2.95;1.65;;;12.70;52.00;;;;;;5134099;27;20028;-72
2021/04/13 11:48:35;;;;;;;4.05;1.70;;;12.60;51.30;;;;;;5132647;27;20023;-74
2021/04/13 11:51:27;;;;;;;2.60;1.95;;;12.50;51.10;;;;;;5133428;27;20042;-72
2021/04/13 11:53:54;;;;;;;8.45;2.00;;;12.20;50.90;;;;;;5133141;28;20033;-72
2021/04/13 11:56:23;;;;;;;2.35;1.73;;;12.00;51.30;;;;;;5132383;27;20033;-72
2021/04/13 11:59:12;;;;;;;5.25;1.95;;;11.70;51.40;;;;;;5131990;28;20042;-72
2021/04/13 12:01:46;;;;;;;5.60;2.15;;;11.40;52.30;;;;;;5126346;27;20035;-72
2021/04/13 12:04:42;;;;;;;2.22;2.00;;;11.20;53.40;;;;;;5131971;27;20027;-73
2021/04/13 12:07:09;;;;;;;2.72;2.30;;;11.00;54.60;;;;;;5132989;27;20031;-73
2021/04/13 12:09:47;;;;;;;4.30;2.33;;;10.90;55.20;;;;;;5132130;28;20019;-72
2021/04/13 12:12:33;;;;;;;3.55;2.53;;;10.90;56.30;;;;;;5131667;28;20023;-73
2021/04/13 12:15:19;;;;;;;4.32;3.20;;;10.90;56.40;;;;;;5133171;27;20024;-73
2021/04/13 12:17:50;;;;;;;4.30;2.55;;;11.00;56.80;;;;;;5131547;28;20165;-73
2021/04/13 12:20:29;;;;;;;5.15;3.15;;;11.10;57.50;;;;;;5133460;27;20026;-73
2021/04/13 12:22:57;;;;;;;5.35;3.30;;;11.20;57.80;;;;;;5133258;27;20047;-72
2021/04/13 12:25:51;;;;;;;4.00;2.40;;;11.30;57.10;;;;;;5133216;27;20473;-73
2021/04/13 12:28:42;;;;;;;2.60;2.28;;;11.30;55.70;;;;;;5112694;28;20028;-73
2021/04/13 12:31:24;;;;;;;2.90;2.58;;;11.50;56.30;;;;;;5112289;27;20063;-73
2021/04/13 12:33:51;;;;;;;3.15;2.28;;;11.60;57.00;;;;;;5136716;27;20023;-73
2021/04/13 12:36:43;;;;;;;2.72;1.80;;;11.80;57.00;;;;;;5136895;27;20023;-72
2021/04/13 12:39:31;;;;;;;2.38;2.08;;;12.00;56.50;;;;;;5137282;27;20107;-72
2021/04/13 12:41:59;;;;;;;3.28;2.10;;;12.00;54.70;;;;;;5136797;27;20027;-74
2021/04/13 12:44:28;;;;;;;4.35;2.00;;;12.00;53.60;;;;;;5137149;27;20361;-73
2021/04/13 12:47:01;;;;;;;2.72;2.17;;;11.90;53.80;;;;;;5136473;27;20454;-73
2021/04/13 12:49:34;;;;;;;3.13;2.10;;;11.90;52.90;;;;;;5136682;27;20050;-73
2021/04/13 12:52:21;;;;;;;2.30;2.08;;;11.80;53.00;;;;;;5136941;27;20425;-73
2021/04/13 12:54:47;;;;;;;3.78;2.53;;;11.70;53.20;;;;;;5136553;27;20555;-73
2021/04/13 12:57:18;;;;;;;3.85;2.50;;;11.70;53.70;;;;;;5136732;27;20113;-73
2021/04/13 12:59:44;;;;;;;2.97;2.35;;;11.70;54.10;;;;;;5136495;27;20034;-74
2021/04/13 13:02:39;;;;;;;3.58;2.38;;;11.70;54.20;;;;;;5136555;27;20111;-73
2021/04/13 13:05:32;;;;;;;4.55;2.50;;;11.70;53.80;;;;;;5135027;27;20030;-73
2021/04/13 13:08:00;;;;;;;3.20;2.47;;;11.60;54.10;;;;;;5136570;27;20408;-73
2021/04/13 13:10:56;;;;;;;6.35;2.63;;;11.60;54.60;;;;;;5134776;27;20030;-73
2021/04/13 13:13:22;;;;;;;3.53;2.50;;;11.50;54.50;;;;;;5136457;27;20042;-73
2021/04/13 13:15:49;;;;;;;3.20;2.90;;;11.50;54.60;;;;;;5135820;27;20345;-72
2021/04/13 13:18:41;;;;;;;6.68;3.75;;;11.40;54.70;;;;;;5136402;27;20472;-72
2021/04/13 13:21:13;;;;;;;2.65;2.45;;;11.10;55.10;;;;;;5136075;27;20023;-71
2021/04/13 13:23:47;;;;;;;2.83;2.40;;;10.90;55.80;;;;;;5136034;27;20027;-72
2021/04/13 13:26:29;;;;;;;4.28;3.17;;;10.70;56.80;;;;;;5135853;27;20027;-69
2021/04/13 13:28:55;;;;;;;3.58;2.90;;;10.60;57.80;;;;;;5135932;27;20071;-68
2021/04/13 13:31:30;;;;;;;3.90;2.97;;;10.50;57.30;;;;;;5133966;27;20023;-72
2021/04/13 13:34:10;;;;;;;4.60;2.78;;;10.40;57.50;;;;;;5135677;27;20034;-69
2021/04/13 13:36:39;;;;;;;7.13;3.25;;;10.30;57.60;;;;;;5135643;27;20011;-69
2021/04/13 13:39:32;;;;;;;5.80;4.35;;;10.30;57.90;;;;;;5134405;27;20035;-68
2021/04/13 13:42:01;;;;;;;7.30;4.13;;;10.20;57.40;;;;;;5133065;27;20046;-68
2021/04/13 13:44:40;;;;;;;5.40;3.50;;;10.20;58.00;;;;;;5135235;27;20117;-70
2021/04/13 13:47:32;;;;;;;5.05;3.10;;;10.30;58.70;;;;;;5135280;27;20473;-71